El-Giza, Egypt
Current Conditions -  °F | °C
As of 2:30 PM on Monday 26 Jan 2015 (Local Time) from HECA Reporting Station
Overcast Overcast  
Wind Chill: 66°   Ceiling: 7000
Heat Index: 66°   Visibility: 6mi
Dew Point: 54°   Wind: 9mph
Humidity: 64%   Direction: 10°N
Pressure: 30.09"   Gusts: NA
Location:  30.08°N, 31.21°E
Report Text: HECA 261230Z 01008KT 9999 FEW025 OVC070 19/12 Q1019 NOSIG
Loading
Personal Weather Stations






























Interactive Weather Map New forecast layout! Learn more

10-Day Weather Forecast

Advertisements
Track Severe Weather on mobile